createdAt,value
2023-05-17T00:02:02.695Z,1.98
2023-05-17T00:04:29.628Z,2.15
2023-05-17T00:06:56.546Z,1.83
2023-05-17T00:09:23.462Z,2.60
2023-05-17T00:11:50.427Z,3.25
2023-05-17T00:14:17.365Z,3.53
2023-05-17T00:16:44.305Z,4.20
2023-05-17T00:19:11.349Z,3.53
2023-05-17T00:21:38.407Z,3.62
2023-05-17T00:24:05.748Z,3.58
2023-05-17T00:26:34.216Z,4.28
2023-05-17T00:29:01.408Z,4.12
2023-05-17T00:31:28.319Z,4.60
2023-05-17T00:33:55.427Z,4.28
2023-05-17T00:36:22.401Z,4.93
2023-05-17T00:38:50.319Z,5.03
2023-05-17T00:41:18.269Z,5.80
2023-05-17T00:43:45.127Z,6.22
2023-05-17T00:46:12.066Z,6.12
2023-05-17T00:48:39.275Z,7.05
2023-05-17T00:51:06.463Z,5.70
2023-05-17T00:53:33.878Z,7.43
2023-05-17T00:56:01.139Z,5.55
2023-05-17T00:58:28.115Z,6.75
2023-05-17T01:00:55.255Z,6.28
2023-05-17T01:03:25.049Z,6.70
2023-05-17T01:05:52.106Z,7.20
2023-05-17T01:08:19.068Z,6.40
2023-05-17T01:11:24.867Z,6.25
2023-05-17T01:14:24.448Z,7.03
2023-05-17T01:16:57.507Z,6.35
2023-05-17T01:19:24.446Z,7.07
2023-05-17T01:22:04.202Z,6.37
2023-05-17T01:24:39.432Z,5.55
2023-05-17T01:27:07.078Z,6.15
2023-05-17T01:29:36.123Z,5.28
2023-05-17T01:32:03.834Z,5.55
2023-05-17T01:34:30.748Z,5.20
2023-05-17T01:36:58.369Z,5.68
2023-05-17T01:39:25.515Z,5.60
2023-05-17T01:42:28.317Z,5.20
2023-05-17T01:45:03.905Z,5.10
2023-05-17T01:47:38.342Z,5.43
2023-05-17T01:50:06.958Z,5.43
2023-05-17T01:52:56.635Z,5.22
2023-05-17T01:55:27.711Z,4.70
2023-05-17T01:57:56.554Z,4.50
2023-05-17T02:00:26.041Z,4.32
2023-05-17T02:02:52.988Z,3.87
2023-05-17T02:05:19.924Z,4.07
2023-05-17T02:07:46.861Z,3.50
2023-05-17T02:10:13.960Z,3.00
2023-05-17T02:12:41.095Z,2.85
2023-05-17T02:15:11.239Z,2.70
2023-05-17T02:17:39.720Z,2.80
2023-05-17T02:20:08.754Z,2.20
2023-05-17T02:22:35.943Z,2.10
2023-05-17T02:25:02.823Z,1.90
2023-05-17T02:27:29.758Z,1.83
2023-05-17T02:29:56.727Z,1.58
2023-05-17T02:32:23.730Z,1.55
2023-05-17T02:34:50.719Z,1.23
2023-05-17T02:37:17.571Z,1.30
2023-05-17T02:39:44.448Z,1.17
2023-05-17T02:42:11.409Z,1.15
2023-05-17T02:44:38.313Z,0.93
2023-05-17T02:47:05.649Z,1.10
2023-05-17T02:49:32.577Z,0.70
2023-05-17T02:52:01.018Z,0.90
2023-05-17T02:54:27.938Z,0.80
2023-05-17T02:56:54.800Z,0.47
2023-05-17T02:59:22.417Z,0.75
2023-05-17T03:01:50.332Z,0.50
2023-05-17T03:04:17.636Z,0.77
2023-05-17T03:06:44.514Z,0.82
2023-05-17T03:09:11.457Z,0.77
2023-05-17T03:11:38.355Z,0.80
2023-05-17T03:14:05.219Z,0.80
2023-05-17T03:16:32.124Z,0.82
2023-05-17T03:18:59.249Z,0.88
2023-05-17T03:21:26.347Z,1.00
2023-05-17T03:23:53.298Z,1.10
2023-05-17T03:26:20.187Z,1.10
2023-05-17T03:28:47.166Z,1.40
2023-05-17T03:31:14.148Z,1.25
2023-05-17T03:33:41.219Z,1.20
2023-05-17T03:36:08.443Z,1.40
2023-05-17T03:38:35.792Z,1.40
2023-05-17T03:41:03.428Z,1.60
2023-05-17T03:43:30.687Z,1.50
2023-05-17T03:45:57.700Z,1.65
2023-05-17T03:48:24.835Z,1.80
2023-05-17T03:50:51.877Z,2.20
2023-05-17T03:53:18.783Z,1.80
2023-05-17T03:55:45.887Z,1.85
2023-05-17T03:58:12.766Z,1.90
2023-05-17T04:00:39.685Z,1.65
2023-05-17T04:03:06.605Z,2.17
2023-05-17T04:05:33.608Z,2.20
2023-05-17T04:08:00.706Z,2.20
2023-05-17T04:10:27.694Z,2.30
2023-05-17T04:12:54.571Z,2.42
2023-05-17T04:15:22.011Z,2.30
2023-05-17T04:17:49.055Z,2.05
2023-05-17T04:20:15.980Z,2.20
2023-05-17T04:22:42.915Z,2.25
2023-05-17T04:25:10.061Z,2.08
2023-05-17T04:27:38.408Z,2.00
2023-05-17T04:30:06.267Z,1.70
2023-05-17T04:32:34.368Z,1.60
2023-05-17T04:35:01.457Z,1.33
2023-05-17T04:37:28.358Z,1.20
2023-05-17T04:39:55.282Z,1.10
2023-05-17T04:42:22.356Z,1.10
2023-05-17T04:44:49.230Z,1.10
2023-05-17T04:47:16.125Z,1.00
2023-05-17T04:49:43.463Z,1.10
2023-05-17T04:52:10.562Z,1.00
2023-05-17T04:54:37.631Z,0.90
2023-05-17T04:57:04.671Z,0.80
2023-05-17T04:59:31.562Z,0.90
2023-05-17T05:01:58.417Z,1.52
2023-05-17T05:04:25.801Z,0.80
2023-05-17T05:06:52.690Z,0.80
2023-05-17T05:09:19.638Z,0.70
2023-05-17T05:11:46.532Z,0.82
2023-05-17T05:14:13.437Z,0.85
2023-05-17T05:16:40.323Z,0.80
2023-05-17T05:19:11.718Z,0.65
2023-05-17T05:21:38.821Z,0.68
2023-05-17T05:24:06.035Z,0.90
2023-05-17T05:26:33.152Z,0.70
2023-05-17T05:29:00.086Z,0.80
2023-05-17T05:31:26.976Z,0.85
2023-05-17T05:33:54.069Z,0.60
2023-05-17T05:36:21.016Z,0.50
2023-05-17T05:38:48.934Z,0.60
2023-05-17T05:41:15.844Z,0.62
2023-05-17T05:43:42.722Z,0.70
2023-05-17T05:46:09.577Z,0.80
2023-05-17T05:48:39.811Z,0.90
2023-05-17T05:51:06.785Z,0.75
2023-05-17T05:53:33.769Z,0.50
2023-05-17T05:56:01.368Z,0.70
2023-05-17T05:58:47.094Z,0.60
2023-05-17T06:01:14.104Z,0.82
2023-05-17T06:03:40.983Z,0.60
2023-05-17T06:06:08.046Z,0.90
2023-05-17T06:08:34.972Z,0.80
2023-05-17T06:11:01.884Z,0.90
2023-05-17T06:13:28.784Z,0.80
2023-05-17T06:15:55.997Z,0.80
2023-05-17T06:18:23.007Z,0.90
2023-05-17T06:20:49.954Z,0.90
2023-05-17T06:23:17.134Z,0.80
2023-05-17T06:25:44.043Z,1.00
2023-05-17T06:28:12.117Z,1.00
2023-05-17T06:30:39.024Z,0.90
2023-05-17T06:33:06.056Z,1.15
2023-05-17T06:35:40.787Z,0.90
2023-05-17T06:38:19.906Z,0.90
2023-05-17T06:40:46.823Z,0.80
2023-05-17T06:43:13.720Z,1.00
2023-05-17T06:45:40.803Z,1.10
2023-05-17T06:48:07.866Z,1.10
2023-05-17T06:50:34.866Z,1.00
2023-05-17T06:53:01.766Z,1.08
2023-05-17T06:55:31.006Z,1.00
2023-05-17T06:58:00.270Z,1.10
2023-05-17T07:00:27.640Z,1.10
2023-05-17T07:02:54.850Z,0.90
2023-05-17T07:05:27.377Z,1.00
2023-05-17T07:07:54.690Z,1.00
2023-05-17T07:10:21.659Z,1.20
2023-05-17T07:12:48.744Z,1.00
2023-05-17T07:15:15.921Z,1.08
2023-05-17T07:17:42.859Z,1.37
2023-05-17T07:20:10.506Z,1.05
2023-05-17T07:22:37.983Z,0.80
2023-05-17T07:25:05.767Z,0.98
2023-05-17T07:27:32.702Z,0.98
2023-05-17T07:29:59.615Z,1.10
2023-05-17T07:32:26.545Z,0.90
2023-05-17T07:34:53.449Z,0.95
2023-05-17T07:37:21.094Z,0.90
2023-05-17T07:39:49.016Z,0.90
2023-05-17T07:42:16.382Z,0.80
2023-05-17T07:44:43.306Z,1.00
2023-05-17T07:47:10.189Z,0.90
2023-05-17T07:49:41.233Z,1.00
2023-05-17T07:52:08.694Z,1.10
2023-05-17T07:54:35.728Z,0.90
2023-05-17T07:57:02.642Z,1.00
2023-05-17T07:59:30.587Z,1.12
2023-05-17T08:01:57.598Z,1.00
2023-05-17T08:04:26.858Z,0.90
2023-05-17T08:07:01.573Z,0.80
2023-05-17T08:10:01.859Z,0.73
2023-05-17T08:12:32.256Z,0.85
2023-05-17T08:14:59.301Z,1.00
2023-05-17T08:17:27.997Z,0.82
2023-05-17T08:19:54.974Z,0.90
2023-05-17T08:22:23.770Z,0.75
2023-05-17T08:24:51.513Z,0.82
2023-05-17T08:27:18.690Z,0.90
2023-05-17T08:30:15.175Z,1.10
2023-05-17T08:32:51.102Z,0.75
2023-05-17T08:35:18.123Z,1.08
2023-05-17T08:37:45.040Z,0.88
2023-05-17T08:40:15.045Z,0.70
2023-05-17T08:42:42.208Z,0.80
2023-05-17T08:45:10.483Z,1.00
2023-05-17T08:47:38.035Z,0.80
2023-05-17T08:50:06.200Z,0.70
2023-05-17T08:52:33.891Z,0.82
2023-05-17T08:55:08.322Z,0.90
2023-05-17T08:57:39.470Z,0.95
2023-05-17T09:00:12.672Z,0.90
2023-05-17T09:02:43.094Z,0.85
2023-05-17T09:05:10.964Z,0.80
2023-05-17T09:07:38.244Z,0.70
2023-05-17T09:10:06.126Z,1.00
2023-05-17T09:12:36.855Z,0.70
2023-05-17T09:15:17.139Z,0.80
2023-05-17T09:17:44.570Z,0.62
2023-05-17T09:20:11.836Z,0.80
2023-05-17T09:22:38.904Z,0.70
2023-05-17T09:25:06.226Z,0.85
2023-05-17T09:27:33.182Z,0.80
2023-05-17T09:30:00.245Z,0.80
2023-05-17T09:32:28.620Z,0.80
2023-05-17T09:34:59.184Z,0.90
2023-05-17T09:37:26.665Z,0.93
2023-05-17T09:39:55.414Z,0.80
2023-05-17T09:42:26.605Z,0.88
2023-05-17T09:45:00.585Z,1.00
2023-05-17T09:47:29.175Z,0.90
2023-05-17T09:49:58.665Z,0.95
2023-05-17T09:52:26.154Z,0.93
2023-05-17T09:54:57.672Z,1.20
2023-05-17T09:57:28.865Z,1.20
2023-05-17T09:59:57.566Z,0.90
2023-05-17T10:02:31.290Z,0.98
2023-05-17T10:04:58.669Z,1.00
2023-05-17T10:07:27.069Z,0.90
2023-05-17T10:09:56.254Z,0.88
2023-05-17T10:12:24.351Z,1.00
2023-05-17T10:14:56.107Z,1.00
2023-05-17T10:17:24.076Z,0.93
2023-05-17T10:19:51.808Z,1.10
2023-05-17T10:22:23.444Z,0.90
2023-05-17T10:24:51.882Z,0.82
2023-05-17T10:27:19.058Z,0.95
2023-05-17T10:29:49.899Z,1.10
2023-05-17T10:32:19.656Z,0.90
2023-05-17T10:34:54.470Z,1.00
2023-05-17T10:37:32.468Z,1.00
2023-05-17T10:39:59.491Z,0.90
2023-05-17T10:42:27.833Z,0.98
2023-05-17T10:44:54.807Z,0.93
2023-05-17T10:47:24.361Z,1.00
2023-05-17T10:49:52.060Z,0.82
2023-05-17T10:52:21.742Z,0.80
2023-05-17T10:54:50.328Z,1.00
2023-05-17T10:57:36.051Z,1.10
2023-05-17T11:00:20.466Z,1.40
2023-05-17T11:02:49.195Z,0.85
2023-05-17T11:05:27.626Z,0.98
2023-05-17T11:08:17.402Z,0.70
2023-05-17T11:11:14.811Z,0.90
2023-05-17T11:13:50.574Z,0.90
2023-05-17T11:16:18.188Z,0.75
2023-05-17T11:18:57.718Z,1.20
2023-05-17T11:21:28.642Z,0.82
2023-05-17T11:24:00.047Z,0.80
2023-05-17T11:26:40.754Z,0.80
2023-05-17T11:29:10.646Z,1.00
2023-05-17T11:31:44.103Z,1.00
2023-05-17T11:34:11.976Z,0.90
2023-05-17T11:36:55.686Z,0.98
2023-05-17T11:39:24.671Z,0.95
2023-05-17T11:41:53.847Z,0.88
2023-05-17T11:44:25.500Z,0.90
2023-05-17T11:46:53.720Z,0.80
2023-05-17T11:49:34.817Z,0.98
2023-05-17T11:52:02.436Z,1.10
2023-05-17T11:54:30.310Z,1.20
2023-05-17T11:57:08.780Z,1.30
2023-05-17T11:59:40.326Z,1.25
2023-05-17T12:02:07.485Z,1.30
2023-05-17T12:04:38.467Z,1.20
2023-05-17T12:07:08.074Z,1.23
2023-05-17T12:09:38.829Z,1.20
2023-05-17T12:12:06.303Z,1.23
2023-05-17T12:14:38.391Z,1.30
2023-05-17T12:17:09.298Z,1.20
2023-05-17T12:22:18.906Z,1.30
2023-05-17T12:24:48.251Z,1.20
2023-05-17T12:27:15.212Z,1.30
2023-05-17T12:29:44.878Z,1.17
2023-05-17T12:38:04.164Z,0.98
2023-05-17T12:40:31.513Z,1.12
2023-05-17T12:45:48.280Z,1.20
2023-05-17T12:51:15.220Z,1.20
2023-05-17T12:53:52.801Z,1.12
2023-05-17T12:56:30.001Z,1.00
2023-05-17T13:01:45.083Z,1.20
2023-05-17T13:04:15.309Z,1.30
2023-05-17T13:06:58.356Z,1.10
2023-05-17T13:09:29.066Z,1.12
2023-05-17T13:15:07.853Z,1.27
2023-05-17T13:17:37.316Z,1.10
2023-05-17T13:20:06.447Z,1.10
2023-05-17T13:22:34.789Z,1.00
2023-05-17T13:25:03.687Z,1.02
2023-05-17T13:27:30.618Z,1.30
2023-05-17T13:29:58.067Z,1.00
2023-05-17T13:32:25.277Z,1.10
2023-05-17T13:34:52.256Z,1.70
2023-05-17T13:37:19.135Z,1.33
2023-05-17T13:39:46.128Z,1.10
2023-05-17T13:42:13.924Z,1.12
2023-05-17T13:44:40.917Z,1.20
2023-05-17T13:47:15.214Z,1.20
2023-05-17T13:49:42.808Z,1.10
2023-05-17T13:52:09.786Z,1.40
2023-05-17T13:54:37.235Z,1.30
2023-05-17T13:57:05.731Z,1.30
2023-05-17T13:59:32.870Z,1.77
2023-05-17T14:01:59.861Z,1.40
2023-05-17T14:04:26.998Z,2.70
2023-05-17T14:06:55.174Z,1.42
2023-05-17T14:09:22.410Z,1.33
2023-05-17T14:11:49.323Z,1.30
2023-05-17T14:14:16.245Z,1.30
2023-05-17T14:16:43.164Z,1.12
2023-05-17T14:19:10.305Z,1.15
2023-05-17T14:21:37.239Z,1.20
2023-05-17T14:24:04.241Z,1.30
2023-05-17T14:26:31.359Z,1.30
2023-05-17T14:28:58.670Z,1.12
2023-05-17T14:31:26.630Z,1.00
2023-05-17T14:33:53.705Z,1.00
2023-05-17T14:36:20.755Z,1.25
2023-05-17T14:38:48.740Z,1.25
2023-05-17T14:41:15.684Z,1.25
2023-05-17T14:43:42.587Z,1.02
2023-05-17T14:46:09.465Z,1.40
2023-05-17T14:48:37.093Z,1.42
2023-05-17T14:51:04.232Z,1.12
2023-05-17T14:53:31.186Z,1.25
2023-05-17T14:55:59.130Z,1.27
2023-05-17T14:58:26.393Z,1.48
2023-05-17T15:01:06.130Z,0.88
2023-05-17T15:03:35.011Z,1.30
2023-05-17T15:06:05.072Z,1.20
2023-05-17T15:08:34.797Z,1.45
2023-05-17T15:11:02.212Z,1.33
2023-05-17T15:13:29.108Z,1.30
2023-05-17T15:15:56.007Z,1.27
2023-05-17T15:18:23.012Z,1.27
2023-05-17T15:20:49.980Z,1.10
2023-05-17T15:23:16.913Z,1.20
2023-05-17T15:25:43.828Z,1.30
2023-05-17T15:28:10.904Z,1.30
2023-05-17T15:30:37.856Z,1.55
2023-05-17T15:33:04.902Z,1.02
2023-05-17T15:35:31.938Z,1.20
2023-05-17T15:37:59.851Z,1.23
2023-05-17T15:40:26.805Z,1.25
2023-05-17T15:42:53.686Z,1.30
2023-05-17T15:45:21.637Z,1.33
2023-05-17T15:47:49.674Z,1.50
2023-05-17T15:50:16.905Z,1.60
2023-05-17T15:52:43.771Z,1.33
2023-05-17T15:55:11.196Z,1.60
2023-05-17T15:57:38.075Z,1.77
2023-05-17T16:00:05.706Z,1.60
2023-05-17T16:02:32.664Z,1.55
2023-05-17T16:05:03.386Z,1.80
2023-05-17T16:07:31.472Z,1.50
2023-05-17T16:09:58.591Z,1.90
2023-05-17T16:12:25.465Z,1.80
2023-05-17T16:14:52.316Z,1.50
2023-05-17T16:17:19.329Z,1.50
2023-05-17T16:19:46.455Z,1.50
2023-05-17T16:22:14.189Z,1.67
2023-05-17T16:24:42.026Z,1.60
2023-05-17T16:27:08.946Z,1.83
2023-05-17T16:29:40.144Z,1.67
2023-05-17T16:32:08.493Z,1.83
2023-05-17T16:34:35.961Z,1.60
2023-05-17T16:37:04.936Z,2.05
2023-05-17T16:39:32.847Z,1.60
2023-05-17T16:41:59.786Z,2.03
2023-05-17T16:44:26.713Z,2.28
2023-05-17T16:46:53.662Z,2.05
2023-05-17T16:49:20.643Z,1.73
2023-05-17T16:51:47.590Z,2.00
2023-05-17T16:54:14.531Z,2.28
2023-05-17T16:56:41.500Z,1.92
2023-05-17T16:59:08.638Z,1.80
2023-05-17T17:01:35.540Z,2.08
2023-05-17T17:04:03.510Z,2.08
2023-05-17T17:06:31.656Z,1.77
2023-05-17T17:08:58.675Z,1.92
2023-05-17T17:11:26.370Z,2.15
2023-05-17T17:13:53.629Z,1.83
2023-05-17T17:16:21.360Z,2.00
2023-05-17T17:18:49.861Z,1.83
2023-05-17T17:21:17.089Z,1.80
2023-05-17T17:23:44.621Z,1.80
2023-05-17T17:26:11.612Z,1.58
2023-05-17T17:28:38.862Z,2.10
2023-05-17T17:31:09.253Z,2.35
2023-05-17T17:33:36.306Z,1.50
2023-05-17T17:36:03.775Z,1.70
2023-05-17T17:38:31.303Z,1.92
2023-05-17T17:40:58.156Z,1.85
2023-05-17T17:43:25.066Z,1.87
2023-05-17T17:45:52.103Z,2.10
2023-05-17T17:48:19.026Z,1.95
2023-05-17T17:50:45.911Z,2.05
2023-05-17T17:53:12.917Z,2.05
2023-05-17T17:55:39.795Z,2.00
2023-05-17T17:58:07.022Z,2.03
2023-05-17T18:00:34.117Z,1.90
2023-05-17T18:03:01.183Z,1.80
2023-05-17T18:05:28.233Z,1.52
2023-05-17T18:07:55.558Z,1.33
2023-05-17T18:10:22.448Z,1.77
2023-05-17T18:12:51.498Z,1.70
2023-05-17T18:15:18.728Z,1.80
2023-05-17T18:17:46.065Z,1.70
2023-05-17T18:20:13.078Z,1.40
2023-05-17T18:22:40.025Z,1.80
2023-05-17T18:25:07.171Z,1.70
2023-05-17T18:27:35.417Z,1.70
2023-05-17T18:30:02.891Z,1.85
2023-05-17T18:32:30.029Z,1.70
2023-05-17T18:34:57.062Z,1.87
2023-05-17T18:37:23.925Z,2.10
2023-05-17T18:39:50.789Z,1.48
2023-05-17T18:42:17.655Z,2.10
2023-05-17T18:44:44.660Z,1.67
2023-05-17T18:47:12.249Z,2.28
2023-05-17T18:49:42.468Z,2.25
2023-05-17T18:52:09.327Z,2.28
2023-05-17T18:54:36.219Z,2.25
2023-05-17T18:57:03.185Z,1.92
2023-05-17T18:59:30.132Z,2.40
2023-05-17T19:01:57.213Z,2.20
2023-05-17T19:04:24.220Z,2.60
2023-05-17T19:06:51.228Z,2.42
2023-05-17T19:09:18.346Z,2.53
2023-05-17T19:11:45.223Z,2.45
2023-05-17T19:14:14.793Z,2.85
2023-05-17T19:16:42.102Z,2.70
2023-05-17T19:19:09.284Z,2.45
2023-05-17T19:21:36.342Z,2.83
2023-05-17T19:24:05.731Z,2.35
2023-05-17T19:26:32.600Z,3.40
2023-05-17T19:28:59.542Z,3.17
2023-05-17T19:31:26.488Z,2.72
2023-05-17T19:33:53.446Z,2.70
2023-05-17T19:36:20.265Z,3.03
2023-05-17T19:41:13.885Z,2.90
2023-05-17T19:43:40.881Z,3.05
2023-05-17T19:46:10.796Z,2.90
2023-05-17T19:48:38.544Z,3.47
2023-05-17T19:51:05.515Z,2.85
2023-05-17T19:53:43.912Z,3.03
2023-05-17T19:56:18.236Z,3.65
2023-05-17T19:58:45.142Z,3.35
2023-05-17T20:01:12.118Z,3.67
2023-05-17T20:03:40.759Z,3.50
2023-05-17T20:06:11.215Z,3.00
2023-05-17T20:08:38.076Z,3.22
2023-05-17T20:11:06.212Z,3.28
2023-05-17T20:13:34.336Z,3.50
2023-05-17T20:16:01.525Z,3.33
2023-05-17T20:18:30.198Z,3.58
2023-05-17T20:20:57.355Z,3.30
2023-05-17T20:23:24.235Z,2.83
2023-05-17T20:25:51.232Z,3.35
2023-05-17T20:28:18.333Z,3.62
2023-05-17T20:30:46.174Z,3.25
2023-05-17T20:33:13.246Z,3.70
2023-05-17T20:35:40.255Z,3.83
2023-05-17T20:38:07.145Z,3.70
2023-05-17T20:40:34.220Z,3.60
2023-05-17T20:43:01.173Z,3.17
2023-05-17T20:45:29.945Z,3.62
2023-05-17T20:47:57.192Z,3.65
2023-05-17T20:50:24.223Z,4.20
2023-05-17T20:52:51.408Z,3.75
2023-05-17T20:55:18.299Z,3.90
2023-05-17T20:57:45.191Z,3.60
2023-05-17T21:00:12.776Z,4.18
2023-05-17T21:02:39.763Z,3.55
2023-05-17T21:05:06.867Z,3.90
2023-05-17T21:07:35.010Z,4.15
2023-05-17T21:10:01.887Z,3.65
2023-05-17T21:12:28.800Z,4.03
2023-05-17T21:15:14.494Z,3.47
2023-05-17T21:17:42.550Z,4.03
2023-05-17T21:20:09.966Z,4.22
2023-05-17T21:22:37.725Z,4.05
2023-05-17T21:25:05.385Z,3.67
2023-05-17T21:27:34.056Z,4.30
2023-05-17T21:30:01.720Z,3.65
2023-05-17T21:32:28.706Z,4.00
2023-05-17T21:34:55.815Z,4.15
2023-05-17T21:37:22.701Z,4.15
2023-05-17T21:39:49.571Z,4.00
2023-05-17T21:42:16.630Z,3.95
2023-05-17T21:44:43.477Z,3.83
2023-05-17T21:47:10.431Z,4.00
2023-05-17T21:49:37.420Z,3.65
2023-05-17T21:52:04.585Z,4.20
2023-05-17T21:54:31.430Z,3.90
2023-05-17T21:56:58.281Z,4.18
2023-05-17T21:59:25.286Z,4.25
2023-05-17T22:01:55.121Z,4.00
2023-05-17T22:04:22.075Z,4.32
2023-05-17T22:06:48.963Z,4.40
2023-05-17T22:09:15.893Z,4.05
2023-05-17T22:11:42.843Z,4.45
2023-05-17T22:14:09.755Z,4.60
2023-05-17T22:16:37.039Z,4.40
2023-05-17T22:19:04.559Z,4.68
2023-05-17T22:21:32.303Z,5.37
2023-05-17T22:23:59.574Z,4.30
2023-05-17T22:26:27.893Z,4.55
2023-05-17T22:28:55.914Z,4.70
2023-05-17T22:31:23.018Z,4.82
2023-05-17T22:33:50.574Z,3.87
2023-05-17T22:36:17.970Z,4.45
2023-05-17T22:38:44.858Z,4.70
2023-05-17T22:41:12.501Z,5.20
2023-05-17T22:43:39.781Z,3.45
2023-05-17T22:46:06.862Z,4.55
2023-05-17T22:48:33.770Z,4.40
2023-05-17T22:51:03.671Z,4.53
2023-05-17T22:53:31.273Z,4.50
2023-05-17T22:55:58.165Z,4.20
2023-05-17T22:58:25.093Z,4.40
2023-05-17T23:00:52.469Z,4.12
2023-05-17T23:03:19.930Z,4.15
2023-05-17T23:05:46.932Z,4.22
2023-05-17T23:08:15.704Z,4.28
2023-05-17T23:10:46.046Z,4.28
2023-05-17T23:13:14.006Z,5.57
2023-05-17T23:15:46.853Z,4.75
2023-05-17T23:18:13.901Z,5.00
2023-05-17T23:20:42.228Z,5.07
2023-05-17T23:23:09.111Z,5.45
2023-05-17T23:25:37.459Z,4.07
2023-05-17T23:28:04.845Z,5.30
2023-05-17T23:30:32.306Z,5.40
2023-05-17T23:33:00.291Z,4.95
2023-05-17T23:35:27.386Z,5.62
2023-05-17T23:37:54.452Z,4.97
2023-05-17T23:40:21.472Z,4.70
2023-05-17T23:42:48.354Z,5.20
2023-05-17T23:45:15.321Z,5.07
2023-05-17T23:47:42.239Z,5.20
2023-05-17T23:50:09.968Z,5.32
2023-05-17T23:52:39.082Z,5.70
2023-05-17T23:55:07.471Z,4.75
2023-05-17T23:57:35.416Z,5.53
